createdAt,value
2023-04-16T23:00:50.278Z,1.80
2023-04-16T23:01:20.808Z,2.00
2023-04-16T23:01:51.672Z,1.90
2023-04-16T23:02:21.949Z,2.20
2023-04-16T23:02:52.671Z,2.00
2023-04-16T23:03:23.490Z,2.30
2023-04-16T23:03:54.002Z,2.20
2023-04-16T23:04:24.547Z,2.40
2023-04-16T23:04:55.366Z,2.20
2023-04-16T23:05:25.914Z,2.20
2023-04-16T23:05:56.441Z,2.10
2023-04-16T23:06:26.955Z,2.50
2023-04-16T23:06:57.635Z,2.50
2023-04-16T23:07:28.153Z,2.40
2023-04-16T23:07:58.882Z,2.00
2023-04-16T23:08:29.424Z,2.40
2023-04-16T23:09:00.023Z,2.20
2023-04-16T23:09:30.536Z,2.30
2023-04-16T23:10:01.486Z,2.20
2023-04-16T23:10:32.536Z,2.10
2023-04-16T23:11:03.215Z,2.30
2023-04-16T23:11:33.674Z,2.30
2023-04-16T23:12:04.699Z,2.30
2023-04-16T23:12:35.168Z,2.30
2023-04-16T23:13:06.111Z,2.40
2023-04-16T23:13:37.090Z,2.10
2023-04-16T23:14:08.308Z,2.00
2023-04-16T23:14:38.885Z,2.30
2023-04-16T23:15:09.345Z,2.70
2023-04-16T23:15:40.437Z,2.10
2023-04-16T23:16:11.045Z,2.00
2023-04-16T23:16:41.587Z,2.30
2023-04-16T23:17:12.342Z,2.20
2023-04-16T23:17:42.900Z,2.20
2023-04-16T23:18:13.403Z,2.10
2023-04-16T23:18:44.443Z,2.30
2023-04-16T23:19:14.987Z,2.10
2023-04-16T23:19:45.544Z,2.30
2023-04-16T23:20:16.197Z,1.90
2023-04-16T23:20:46.714Z,2.10
2023-04-16T23:21:17.232Z,2.10
2023-04-16T23:21:47.673Z,2.00
2023-04-16T23:22:18.691Z,2.00
2023-04-16T23:22:49.140Z,1.90
2023-04-16T23:23:20.652Z,2.10
2023-04-16T23:23:51.188Z,2.10
2023-04-16T23:24:21.661Z,1.80
2023-04-16T23:24:52.621Z,2.10
2023-04-16T23:25:23.583Z,2.00
2023-04-16T23:25:54.564Z,2.00
2023-04-16T23:26:25.787Z,2.00
2023-04-16T23:26:56.252Z,2.30
2023-04-16T23:27:27.295Z,1.80
2023-04-16T23:27:57.741Z,2.00
2023-04-16T23:28:28.774Z,1.80
2023-04-16T23:28:59.221Z,2.30
2023-04-16T23:29:30.393Z,2.10
2023-04-16T23:30:00.959Z,2.10
2023-04-16T23:30:31.480Z,2.00
2023-04-16T23:31:02.345Z,2.20
2023-04-16T23:31:33.093Z,2.30
2023-04-16T23:32:03.652Z,2.20
2023-04-16T23:32:35.096Z,2.20
2023-04-16T23:33:05.246Z,2.20
2023-04-16T23:33:35.744Z,2.00
2023-04-16T23:34:06.710Z,2.00
2023-04-16T23:34:37.659Z,1.90
2023-04-16T23:35:08.710Z,2.20
2023-04-16T23:35:39.374Z,2.10
2023-04-16T23:36:09.902Z,1.80
2023-04-16T23:36:40.414Z,2.10
2023-04-16T23:37:11.175Z,1.90
2023-04-16T23:37:41.711Z,2.00
2023-04-16T23:38:12.222Z,2.00
2023-04-16T23:38:42.928Z,2.40
2023-04-16T23:39:13.636Z,2.20
2023-04-16T23:39:44.180Z,2.30
2023-04-16T23:40:15.144Z,2.20
2023-04-16T23:40:46.066Z,2.20
2023-04-16T23:41:17.088Z,2.10
2023-04-16T23:41:47.778Z,2.00
2023-04-16T23:42:18.246Z,2.30
2023-04-16T23:42:49.199Z,2.40
2023-04-16T23:43:20.210Z,2.00
2023-04-16T23:43:50.666Z,2.20
2023-04-16T23:44:21.681Z,2.10
2023-04-16T23:44:52.821Z,2.40
2023-04-16T23:45:23.384Z,2.00
2023-04-16T23:45:53.931Z,2.50
2023-04-16T23:46:24.483Z,2.10
2023-04-16T23:46:55.109Z,2.30
2023-04-16T23:47:25.630Z,2.50
2023-04-16T23:47:56.349Z,2.60
2023-04-16T23:48:26.855Z,2.70
2023-04-16T23:48:57.837Z,2.50
2023-04-16T23:49:28.353Z,2.90
2023-04-16T23:49:58.802Z,2.50
2023-04-16T23:50:29.843Z,2.50
2023-04-16T23:51:00.486Z,2.40
2023-04-16T23:51:31.005Z,2.30
2023-04-16T23:52:01.949Z,2.60
2023-04-16T23:52:32.883Z,2.50
2023-04-16T23:53:03.847Z,2.60
2023-04-16T23:53:34.812Z,2.70
2023-04-16T23:54:05.935Z,2.60
2023-04-16T23:54:36.445Z,2.40
2023-04-16T23:55:07.411Z,2.90
2023-04-16T23:55:38.365Z,2.80
2023-04-16T23:56:09.377Z,2.80
2023-04-16T23:56:40.311Z,2.10
2023-04-16T23:57:11.485Z,2.60
2023-04-16T23:57:41.892Z,2.70
2023-04-16T23:58:12.841Z,2.80
2023-04-16T23:58:43.815Z,2.80
2023-04-16T23:59:14.515Z,2.90
2023-04-16T23:59:45.256Z,2.70
